Ilheus Aeroporto, Brazil
Current Conditions -  °F | °C
As of 5:00 AM on Monday 26 Jan 2015 (Local Time) from SBIL Reporting Station
Rain Showers Rain Showers  
Wind Chill: 73°   Ceiling: Unl
Heat Index: 73°   Visibility: 6mi
Dew Point: 72°   Wind: 6mph
Humidity: 94%   Direction: 280°W
Pressure: 29.94"   Gusts: NA
Location:  14.82°S, 39.03°W
Report Text: SBIL 260800Z 28005KT 9999 VCSH SCT020 23/22 Q1014
Loading
Personal Weather Stations






























Interactive Weather Map New forecast layout! Learn more

10-Day Weather Forecast

Advertisements
Track Severe Weather on mobile